<?xml version="1.0" encoding="UTF-8" standalone="no" ?>
<gpx xmlns="http://www.topografix.com/GPX/1/1" creator="MapSource 6.11.6" version="1.1" xmlns:xsi="http://www.w3.org/2001/XMLSchema-instance" xsi:schemaLocation="http://www.topografix.com/GPX/1/1 http://www.topografix.com/GPX/1/1/gpx.xsd">

  <metadata>
    <link href="http://www.garmin.com">
      <text>Garmin International</text>
    </link>
    <time>2008-10-30T19:46:13Z</time>
    <bounds maxlat="50.577885" maxlon="6.220474" minlat="50.564680" minlon="6.203555"/>
  </metadata>

  <trk>
    <name>Mützenich Rundgang</name>
    <extensions>
      <gpxx:TrackExtension xmlns:gpxx="http://www.garmin.com/xmlschemas/GpxExtensions/v3" xmlns:xsi="http://www.w3.org/2001/XMLSchema-instance" xsi:schemaLocation="http://www.garmin.com/xmlschemas/GpxExtensions/v3 http://www.garmin.com/xmlschemas/GpxExtensions/v3/GpxExtensionsv3.xsd">
        <gpxx:DisplayColor>White</gpxx:DisplayColor>
      </gpxx:TrackExtension>
    </extensions>
    <trkseg>
      <trkpt lat="50.566937" lon="6.217965">
        <ele>586.000000</ele>
        <time>2008-01-30T12:00:57Z</time>
      </trkpt>
      <trkpt lat="50.566817" lon="6.217845">
        <ele>590.000000</ele>
        <time>2008-01-30T12:01:02Z</time>
      </trkpt>
      <trkpt lat="50.567009" lon="6.217255">
        <ele>590.000000</ele>
        <time>2008-01-30T12:01:19Z</time>
      </trkpt>
      <trkpt lat="50.567555" lon="6.217124">
        <ele>592.000000</ele>
        <time>2008-01-30T12:01:41Z</time>
      </trkpt>
      <trkpt lat="50.567834" lon="6.217136">
        <ele>592.000000</ele>
        <time>2008-01-30T12:01:52Z</time>
      </trkpt>
      <trkpt lat="50.568411" lon="6.216057">
        <ele>601.000000</ele>
        <time>2008-01-30T12:02:28Z</time>
      </trkpt>
      <trkpt lat="50.569545" lon="6.215002">
        <ele>607.000000</ele>
        <time>2008-01-30T12:03:21Z</time>
      </trkpt>
      <trkpt lat="50.569884" lon="6.216379">
        <ele>603.000000</ele>
        <time>2008-01-30T12:03:59Z</time>
      </trkpt>
      <trkpt lat="50.570023" lon="6.216555">
        <ele>603.000000</ele>
        <time>2008-01-30T12:04:06Z</time>
      </trkpt>
      <trkpt lat="50.570584" lon="6.217835">
        <ele>605.000000</ele>
        <time>2008-01-30T12:04:45Z</time>
      </trkpt>
      <trkpt lat="50.570974" lon="6.219082">
        <ele>598.000000</ele>
        <time>2008-01-30T12:05:21Z</time>
      </trkpt>
      <trkpt lat="50.571159" lon="6.219707">
        <ele>594.000000</ele>
        <time>2008-01-30T12:05:38Z</time>
      </trkpt>
      <trkpt lat="50.571305" lon="6.220150">
        <ele>598.000000</ele>
        <time>2008-01-30T12:05:51Z</time>
      </trkpt>
      <trkpt lat="50.571555" lon="6.220474">
        <ele>595.000000</ele>
        <time>2008-01-30T12:06:04Z</time>
      </trkpt>
      <trkpt lat="50.571736" lon="6.219743">
        <ele>598.000000</ele>
        <time>2008-01-30T12:06:24Z</time>
      </trkpt>
      <trkpt lat="50.572050" lon="6.218977">
        <ele>601.000000</ele>
        <time>2008-01-30T12:06:47Z</time>
      </trkpt>
      <trkpt lat="50.572293" lon="6.218609">
        <ele>609.000000</ele>
        <time>2008-01-30T12:07:00Z</time>
      </trkpt>
      <trkpt lat="50.572854" lon="6.217997">
        <ele>609.000000</ele>
        <time>2008-01-30T12:07:28Z</time>
      </trkpt>
      <trkpt lat="50.573091" lon="6.217758">
        <ele>620.000000</ele>
        <time>2008-01-30T12:07:39Z</time>
      </trkpt>
      <trkpt lat="50.573429" lon="6.217596">
        <ele>620.000000</ele>
        <time>2008-01-30T12:07:53Z</time>
      </trkpt>
      <trkpt lat="50.573633" lon="6.217104">
        <ele>620.000000</ele>
        <time>2008-01-30T12:08:08Z</time>
      </trkpt>
      <trkpt lat="50.573891" lon="6.216623">
        <ele>629.000000</ele>
        <time>2008-01-30T12:08:24Z</time>
      </trkpt>
      <trkpt lat="50.574126" lon="6.216313">
        <ele>629.000000</ele>
        <time>2008-01-30T12:08:36Z</time>
      </trkpt>
      <trkpt lat="50.574382" lon="6.216114">
        <ele>633.000000</ele>
        <time>2008-01-30T12:08:48Z</time>
      </trkpt>
      <trkpt lat="50.574874" lon="6.215986">
        <ele>635.000000</ele>
        <time>2008-01-30T12:09:08Z</time>
      </trkpt>
      <trkpt lat="50.575242" lon="6.215950">
        <ele>635.000000</ele>
        <time>2008-01-30T12:09:23Z</time>
      </trkpt>
      <trkpt lat="50.575503" lon="6.215977">
        <ele>640.000000</ele>
        <time>2008-01-30T12:09:33Z</time>
      </trkpt>
      <trkpt lat="50.575897" lon="6.216293">
        <ele>636.000000</ele>
        <time>2008-01-30T12:09:51Z</time>
      </trkpt>
      <trkpt lat="50.576004" lon="6.215863">
        <ele>640.000000</ele>
        <time>2008-01-30T12:10:02Z</time>
      </trkpt>
      <trkpt lat="50.576362" lon="6.215051">
        <ele>647.000000</ele>
        <time>2008-01-30T12:10:28Z</time>
      </trkpt>
      <trkpt lat="50.576724" lon="6.214380">
        <ele>650.000000</ele>
        <time>2008-01-30T12:10:50Z</time>
      </trkpt>
      <trkpt lat="50.576948" lon="6.213986">
        <ele>650.000000</ele>
        <time>2008-01-30T12:11:03Z</time>
      </trkpt>
      <trkpt lat="50.577500" lon="6.213021">
        <ele>657.000000</ele>
        <time>2008-01-30T12:11:36Z</time>
      </trkpt>
      <trkpt lat="50.577885" lon="6.212180">
        <ele>661.000000</ele>
        <time>2008-01-30T12:12:03Z</time>
      </trkpt>
      <trkpt lat="50.577526" lon="6.211467">
        <ele>664.000000</ele>
        <time>2008-01-30T12:12:26Z</time>
      </trkpt>
      <trkpt lat="50.577187" lon="6.210837">
        <ele>666.000000</ele>
        <time>2008-01-30T12:12:47Z</time>
      </trkpt>
      <trkpt lat="50.577050" lon="6.210379">
        <ele>661.000000</ele>
        <time>2008-01-30T12:13:00Z</time>
      </trkpt>
      <trkpt lat="50.576797" lon="6.209561">
        <ele>663.000000</ele>
        <time>2008-01-30T12:13:23Z</time>
      </trkpt>
      <trkpt lat="50.576603" lon="6.208951">
        <ele>663.000000</ele>
        <time>2008-01-30T12:13:40Z</time>
      </trkpt>
      <trkpt lat="50.576153" lon="6.207834">
        <ele>654.000000</ele>
        <time>2008-01-30T12:14:14Z</time>
      </trkpt>
      <trkpt lat="50.576199" lon="6.206391">
        <ele>654.000000</ele>
        <time>2008-01-30T12:14:51Z</time>
      </trkpt>
      <trkpt lat="50.574996" lon="6.206067">
        <ele>648.000000</ele>
        <time>2008-01-30T12:15:40Z</time>
      </trkpt>
      <trkpt lat="50.574775" lon="6.206616">
        <ele>651.000000</ele>
        <time>2008-01-30T12:15:56Z</time>
      </trkpt>
      <trkpt lat="50.574254" lon="6.206633">
        <ele>649.000000</ele>
        <time>2008-01-30T12:16:17Z</time>
      </trkpt>
      <trkpt lat="50.573994" lon="6.206267">
        <ele>649.000000</ele>
        <time>2008-01-30T12:16:31Z</time>
      </trkpt>
      <trkpt lat="50.573721" lon="6.206156">
        <ele>642.000000</ele>
        <time>2008-01-30T12:16:42Z</time>
      </trkpt>
      <trkpt lat="50.573284" lon="6.206281">
        <ele>644.000000</ele>
        <time>2008-01-30T12:17:00Z</time>
      </trkpt>
      <trkpt lat="50.573004" lon="6.206241">
        <ele>642.000000</ele>
        <time>2008-01-30T12:17:11Z</time>
      </trkpt>
      <trkpt lat="50.572687" lon="6.205794">
        <ele>639.000000</ele>
        <time>2008-01-30T12:17:28Z</time>
      </trkpt>
      <trkpt lat="50.572391" lon="6.205811">
        <ele>639.000000</ele>
        <time>2008-01-30T12:17:40Z</time>
      </trkpt>
      <trkpt lat="50.572049" lon="6.205789">
        <ele>638.000000</ele>
        <time>2008-01-30T12:17:54Z</time>
      </trkpt>
      <trkpt lat="50.571833" lon="6.205802">
        <ele>638.000000</ele>
        <time>2008-01-30T12:18:02Z</time>
      </trkpt>
      <trkpt lat="50.571368" lon="6.205533">
        <ele>638.000000</ele>
        <time>2008-01-30T12:18:22Z</time>
      </trkpt>
      <trkpt lat="50.570849" lon="6.205267">
        <ele>634.000000</ele>
        <time>2008-01-30T12:18:44Z</time>
      </trkpt>
      <trkpt lat="50.570551" lon="6.205200">
        <ele>634.000000</ele>
        <time>2008-01-30T12:18:56Z</time>
      </trkpt>
      <trkpt lat="50.570227" lon="6.205177">
        <ele>630.000000</ele>
        <time>2008-01-30T12:19:09Z</time>
      </trkpt>
      <trkpt lat="50.570067" lon="6.204890">
        <ele>630.000000</ele>
        <time>2008-01-30T12:19:19Z</time>
      </trkpt>
      <trkpt lat="50.569766" lon="6.204710">
        <ele>630.000000</ele>
        <time>2008-01-30T12:19:32Z</time>
      </trkpt>
      <trkpt lat="50.569416" lon="6.204364">
        <ele>627.000000</ele>
        <time>2008-01-30T12:19:48Z</time>
      </trkpt>
      <trkpt lat="50.569108" lon="6.203888">
        <ele>627.000000</ele>
        <time>2008-01-30T12:20:06Z</time>
      </trkpt>
      <trkpt lat="50.568796" lon="6.203624">
        <ele>627.000000</ele>
        <time>2008-01-30T12:20:20Z</time>
      </trkpt>
      <trkpt lat="50.568524" lon="6.203555">
        <ele>624.000000</ele>
        <time>2008-01-30T12:20:31Z</time>
      </trkpt>
      <trkpt lat="50.568398" lon="6.203902">
        <ele>625.000000</ele>
        <time>2008-01-30T12:20:41Z</time>
      </trkpt>
      <trkpt lat="50.568464" lon="6.204406">
        <ele>625.000000</ele>
        <time>2008-01-30T12:20:54Z</time>
      </trkpt>
      <trkpt lat="50.568477" lon="6.204956">
        <ele>626.000000</ele>
        <time>2008-01-30T12:21:08Z</time>
      </trkpt>
      <trkpt lat="50.568192" lon="6.205453">
        <ele>625.000000</ele>
        <time>2008-01-30T12:21:25Z</time>
      </trkpt>
      <trkpt lat="50.567678" lon="6.205370">
        <ele>625.000000</ele>
        <time>2008-01-30T12:21:46Z</time>
      </trkpt>
      <trkpt lat="50.567018" lon="6.205579">
        <ele>620.000000</ele>
        <time>2008-01-30T12:22:13Z</time>
      </trkpt>
      <trkpt lat="50.566404" lon="6.205855">
        <ele>620.000000</ele>
        <time>2008-01-30T12:22:38Z</time>
      </trkpt>
      <trkpt lat="50.566552" lon="6.206397">
        <ele>617.000000</ele>
        <time>2008-01-30T12:22:53Z</time>
      </trkpt>
      <trkpt lat="50.566700" lon="6.206953">
        <ele>617.000000</ele>
        <time>2008-01-30T12:23:09Z</time>
      </trkpt>
      <trkpt lat="50.566809" lon="6.207398">
        <ele>617.000000</ele>
        <time>2008-01-30T12:23:21Z</time>
      </trkpt>
      <trkpt lat="50.567069" lon="6.208089">
        <ele>616.000000</ele>
        <time>2008-01-30T12:23:41Z</time>
      </trkpt>
      <trkpt lat="50.567430" lon="6.208914">
        <ele>620.000000</ele>
        <time>2008-01-30T12:24:07Z</time>
      </trkpt>
      <trkpt lat="50.567752" lon="6.209587">
        <ele>620.000000</ele>
        <time>2008-01-30T12:24:28Z</time>
      </trkpt>
      <trkpt lat="50.568074" lon="6.210260">
        <ele>622.000000</ele>
        <time>2008-01-30T12:24:49Z</time>
      </trkpt>
      <trkpt lat="50.567114" lon="6.211093">
        <ele>618.000000</ele>
        <time>2008-01-30T12:25:33Z</time>
      </trkpt>
      <trkpt lat="50.566736" lon="6.211101">
        <ele>615.000000</ele>
        <time>2008-01-30T12:25:48Z</time>
      </trkpt>
      <trkpt lat="50.566278" lon="6.211481">
        <ele>614.000000</ele>
        <time>2008-01-30T12:26:09Z</time>
      </trkpt>
      <trkpt lat="50.566143" lon="6.211489">
        <ele>612.000000</ele>
        <time>2008-01-30T12:26:15Z</time>
      </trkpt>
      <trkpt lat="50.565996" lon="6.211329">
        <ele>612.000000</ele>
        <time>2008-01-30T12:26:22Z</time>
      </trkpt>
      <trkpt lat="50.565627" lon="6.211703">
        <ele>612.000000</ele>
        <time>2008-01-30T12:26:39Z</time>
      </trkpt>
      <trkpt lat="50.565237" lon="6.211966">
        <ele>609.000000</ele>
        <time>2008-01-30T12:26:56Z</time>
      </trkpt>
      <trkpt lat="50.564946" lon="6.213311">
        <ele>605.000000</ele>
        <time>2008-01-30T12:27:32Z</time>
      </trkpt>
      <trkpt lat="50.564795" lon="6.214152">
        <ele>602.000000</ele>
        <time>2008-01-30T12:27:55Z</time>
      </trkpt>
      <trkpt lat="50.564872" lon="6.215489">
        <ele>596.000000</ele>
        <time>2008-01-30T12:28:29Z</time>
      </trkpt>
      <trkpt lat="50.564680" lon="6.216107">
        <ele>596.000000</ele>
        <time>2008-01-30T12:28:46Z</time>
      </trkpt>
      <trkpt lat="50.565104" lon="6.216929">
        <ele>593.000000</ele>
        <time>2008-01-30T12:29:13Z</time>
      </trkpt>
      <trkpt lat="50.565774" lon="6.217850">
        <ele>591.000000</ele>
        <time>2008-01-30T12:29:49Z</time>
      </trkpt>
      <trkpt lat="50.565904" lon="6.218040">
        <ele>587.000000</ele>
        <time>2008-01-30T12:29:56Z</time>
      </trkpt>
      <trkpt lat="50.566044" lon="6.218243">
        <ele>587.000000</ele>
        <time>2008-01-30T12:30:03Z</time>
      </trkpt>
      <trkpt lat="50.566284" lon="6.218512">
        <ele>586.000000</ele>
        <time>2008-01-30T12:30:15Z</time>
      </trkpt>
      <trkpt lat="50.566556" lon="6.217860">
        <ele>590.000000</ele>
        <time>2008-01-30T12:30:35Z</time>
      </trkpt>
      <trkpt lat="50.566928" lon="6.217980">
        <ele>586.000000</ele>
        <time>2008-01-30T12:30:50Z</time>
      </trkpt>
    </trkseg>
  </trk>

</gpx>
